Time;durP1;ratioP1;P1;durP2;ratioP2;P2;SDS_P1;SDS_P2;PMS_P1;PMS_P2;Temp;Humidity;BMP_temperature;BMP_pressure;BME280_temperature;BME280_humidity;BME280_pressure;Samples;Min_cycle;Max_cycle;Signal;HPM_P1;HPM_P2
2023/12/16 00:01:11;;;;;;;64.10;9.98;;;;;;;;;;5111574;28;20118;-75
2023/12/16 00:03:38;;;;;;;53.60;9.45;;;;;;;;;;5113781;28;20128;-76
2023/12/16 00:06:05;;;;;;;57.72;10.75;;;;;;;;;;5113915;28;20036;-75
2023/12/16 00:08:31;;;;;;;53.78;10.10;;;;;;;;;;5114055;28;20467;-75
2023/12/16 00:10:57;;;;;;;64.63;10.13;;;;;;;;;;5112746;28;20065;-75
2023/12/16 00:13:23;;;;;;;54.33;9.80;;;;;;;;;;5112814;28;20031;-74
2023/12/16 00:15:49;;;;;;;58.35;9.40;;;;;;;;;;5114104;28;20359;-77
2023/12/16 00:18:15;;;;;;;61.45;10.38;;;;;;;;;;5114287;28;20068;-76
2023/12/16 00:20:41;;;;;;;51.13;9.07;;;;;;;;;;5112287;28;20035;-75
2023/12/16 00:23:08;;;;;;;56.13;10.00;;;;;;;;;;5113598;28;20100;-76
2023/12/16 00:25:34;;;;;;;62.00;10.35;;;;;;;;;;5112968;28;20035;-75
2023/12/16 00:27:59;;;;;;;45.08;9.73;;;;;;;;;;5113311;28;20027;-76
2023/12/16 00:30:26;;;;;;;49.58;9.68;;;;;;;;;;5113331;28;20035;-74
2023/12/16 00:32:52;;;;;;;48.75;8.57;;;;;;;;;;5114628;28;20020;-75
2023/12/16 00:35:18;;;;;;;51.67;9.48;;;;;;;;;;5112566;28;20363;-74
2023/12/16 00:37:43;;;;;;;58.28;10.27;;;;;;;;;;5112834;28;20027;-74
2023/12/16 00:40:10;;;;;;;47.67;9.15;;;;;;;;;;5112472;28;20024;-75
2023/12/16 00:42:36;;;;;;;69.55;9.82;;;;;;;;;;5113827;28;20444;-76
2023/12/16 00:45:02;;;;;;;51.90;9.23;;;;;;;;;;5113793;28;20023;-76
2023/12/16 00:47:28;;;;;;;37.42;8.98;;;;;;;;;;5113911;28;20031;-76
2023/12/16 00:49:54;;;;;;;51.97;8.88;;;;;;;;;;5113572;28;20033;-77
2023/12/16 00:52:20;;;;;;;62.25;8.68;;;;;;;;;;5113623;28;20028;-75
2023/12/16 00:54:47;;;;;;;55.45;9.40;;;;;;;;;;5114275;28;20020;-75
2023/12/16 00:57:13;;;;;;;47.47;8.85;;;;;;;;;;5113081;28;20096;-74
2023/12/16 00:59:39;;;;;;;44.50;8.30;;;;;;;;;;5112347;28;20031;-74
2023/12/16 01:02:05;;;;;;;56.88;9.55;;;;;;;;;;5109111;28;20085;-76
2023/12/16 01:04:31;;;;;;;55.80;10.07;;;;;;;;;;5104834;28;20275;-75
2023/12/16 01:06:57;;;;;;;56.33;9.10;;;;;;;;;;5104323;28;20108;-74
2023/12/16 01:09:24;;;;;;;56.22;8.95;;;;;;;;;;5096772;28;20024;-74
2023/12/16 01:11:50;;;;;;;52.30;8.88;;;;;;;;;;5096347;28;20016;-74
2023/12/16 01:14:16;;;;;;;57.47;9.23;;;;;;;;;;5094973;28;20075;-75
2023/12/16 01:16:42;;;;;;;51.72;8.52;;;;;;;;;;5094218;28;20487;-74
2023/12/16 01:19:08;;;;;;;41.13;8.23;;;;;;;;;;5091474;28;20095;-75
2023/12/16 01:21:43;;;;;;;49.10;7.85;;;;;;;;;;5092241;28;20390;-75
2023/12/16 01:24:10;;;;;;;44.85;8.40;;;;;;;;;;5090839;28;20513;-74
2023/12/16 01:26:36;;;;;;;54.03;7.63;;;;;;;;;;5092181;28;20032;-74
2023/12/16 01:29:02;;;;;;;58.97;7.85;;;;;;;;;;5091166;28;20024;-75
2023/12/16 01:31:28;;;;;;;44.13;7.22;;;;;;;;;;5091678;28;20464;-75
2023/12/16 01:33:54;;;;;;;54.70;9.00;;;;;;;;;;5092197;28;20058;-75
2023/12/16 01:36:20;;;;;;;43.33;7.22;;;;;;;;;;5092195;28;20376;-76
2023/12/16 01:38:46;;;;;;;41.70;7.20;;;;;;;;;;5092240;28;20476;-76
2023/12/16 01:41:12;;;;;;;51.83;7.70;;;;;;;;;;5091226;28;20130;-75
2023/12/16 01:43:38;;;;;;;44.13;7.80;;;;;;;;;;5090720;28;20103;-75
2023/12/16 01:46:05;;;;;;;43.58;7.78;;;;;;;;;;5092316;28;20035;-75
2023/12/16 01:48:31;;;;;;;46.60;7.45;;;;;;;;;;5091202;28;20031;-75
2023/12/16 01:50:57;;;;;;;53.38;7.93;;;;;;;;;;5090541;28;20387;-76
2023/12/16 01:53:25;;;;;;;45.17;6.68;;;;;;;;;;5090928;28;20024;-74
2023/12/16 01:55:51;;;;;;;52.60;7.10;;;;;;;;;;5091081;28;20024;-77
2023/12/16 01:58:17;;;;;;;48.40;7.63;;;;;;;;;;5091220;28;20119;-74
2023/12/16 02:00:44;;;;;;;48.10;7.97;;;;;;;;;;5090416;28;20024;-75
2023/12/16 02:03:11;;;;;;;42.22;7.57;;;;;;;;;;5090710;28;20024;-76
2023/12/16 02:05:37;;;;;;;46.72;7.15;;;;;;;;;;5091172;28;20028;-75
2023/12/16 02:08:03;;;;;;;44.58;7.72;;;;;;;;;;5090741;28;20077;-74
2023/12/16 02:10:29;;;;;;;46.90;7.70;;;;;;;;;;5090157;28;20028;-73
2023/12/16 02:12:55;;;;;;;47.38;7.20;;;;;;;;;;5090916;28;20024;-75
2023/12/16 02:15:21;;;;;;;44.03;7.68;;;;;;;;;;5090953;28;20070;-74
2023/12/16 02:17:47;;;;;;;41.45;7.10;;;;;;;;;;5093611;28;20016;-76
2023/12/16 02:20:14;;;;;;;47.28;6.97;;;;;;;;;;5091293;28;20161;-74
2023/12/16 02:22:40;;;;;;;50.67;6.75;;;;;;;;;;5090438;28;20040;-75
2023/12/16 02:25:08;;;;;;;47.00;7.70;;;;;;;;;;5089705;28;20032;-73
2023/12/16 02:27:34;;;;;;;43.65;8.32;;;;;;;;;;5090919;28;20028;-74
2023/12/16 02:30:00;;;;;;;36.08;6.32;;;;;;;;;;5091052;28;20039;-75
2023/12/16 02:32:26;;;;;;;39.85;6.88;;;;;;;;;;5091012;28;20046;-75
2023/12/16 02:34:52;;;;;;;46.20;7.55;;;;;;;;;;5091089;28;20057;-75
2023/12/16 02:37:18;;;;;;;51.75;8.35;;;;;;;;;;5096027;28;20024;-75
2023/12/16 02:39:44;;;;;;;45.75;8.23;;;;;;;;;;5094535;28;20077;-75
2023/12/16 02:42:10;;;;;;;42.95;8.18;;;;;;;;;;5094565;28;20412;-74
2023/12/16 02:44:36;;;;;;;39.33;6.95;;;;;;;;;;5094774;28;20031;-75
2023/12/16 02:47:02;;;;;;;48.38;7.05;;;;;;;;;;5095126;28;20059;-75
2023/12/16 02:49:28;;;;;;;46.90;6.97;;;;;;;;;;5096752;28;20016;-75
2023/12/16 02:51:54;;;;;;;62.08;7.72;;;;;;;;;;5096493;28;20558;-74
2023/12/16 02:54:20;;;;;;;41.05;7.25;;;;;;;;;;5095353;28;20032;-75
2023/12/16 02:56:46;;;;;;;41.10;6.40;;;;;;;;;;5095040;28;20487;-75
2023/12/16 02:59:12;;;;;;;35.53;6.55;;;;;;;;;;5095766;28;20084;-74
2023/12/16 03:01:38;;;;;;;44.20;6.30;;;;;;;;;;5095641;28;20039;-75
2023/12/16 03:04:04;;;;;;;44.50;7.00;;;;;;;;;;5095476;28;20098;-74
2023/12/16 03:06:31;;;;;;;41.88;6.00;;;;;;;;;;5095188;28;20480;-74
2023/12/16 03:08:57;;;;;;;31.45;6.20;;;;;;;;;;5094971;28;20016;-75
2023/12/16 03:11:22;;;;;;;35.42;5.85;;;;;;;;;;5095569;28;20049;-75
2023/12/16 03:13:48;;;;;;;28.92;5.15;;;;;;;;;;5096296;28;20027;-76
2023/12/16 03:16:14;;;;;;;35.00;5.78;;;;;;;;;;5094486;28;20444;-75
2023/12/16 03:18:40;;;;;;;36.72;6.20;;;;;;;;;;5094891;28;20100;-75
2023/12/16 03:21:07;;;;;;;26.50;5.03;;;;;;;;;;5098733;28;20051;-75
2023/12/16 03:23:33;;;;;;;34.83;6.00;;;;;;;;;;5115147;28;20051;-75
2023/12/16 03:25:59;;;;;;;41.05;6.00;;;;;;;;;;5115288;28;20038;-76
2023/12/16 03:28:25;;;;;;;29.80;4.90;;;;;;;;;;5115681;28;20031;-75
2023/12/16 03:30:51;;;;;;;34.38;6.05;;;;;;;;;;5114287;28;20077;-74
2023/12/16 03:33:17;;;;;;;30.25;5.18;;;;;;;;;;5114779;28;20107;-75
2023/12/16 03:35:43;;;;;;;26.50;4.95;;;;;;;;;;5115558;28;20047;-78
2023/12/16 03:38:09;;;;;;;38.97;8.25;;;;;;;;;;5115066;28;20467;-75
2023/12/16 03:40:35;;;;;;;33.42;5.13;;;;;;;;;;5113860;28;20076;-76
2023/12/16 03:43:01;;;;;;;36.53;5.63;;;;;;;;;;5114860;28;20033;-75
2023/12/16 03:45:27;;;;;;;25.92;5.07;;;;;;;;;;5114962;28;20027;-74
2023/12/16 03:47:53;;;;;;;28.42;4.78;;;;;;;;;;5113567;28;20436;-75
2023/12/16 03:50:19;;;;;;;34.63;5.18;;;;;;;;;;5110587;28;20023;-75
2023/12/16 03:52:45;;;;;;;27.80;5.05;;;;;;;;;;5113123;28;20498;-75
2023/12/16 03:55:12;;;;;;;28.33;4.53;;;;;;;;;;5113634;28;20262;-75
2023/12/16 03:57:38;;;;;;;33.05;4.97;;;;;;;;;;5113309;28;20106;-75
2023/12/16 04:00:05;;;;;;;31.15;5.25;;;;;;;;;;5112949;28;20108;-76
2023/12/16 04:02:31;;;;;;;31.88;4.85;;;;;;;;;;5112892;28;20024;-76
2023/12/16 04:04:57;;;;;;;32.10;4.55;;;;;;;;;;5113388;28;20031;-75
2023/12/16 04:07:23;;;;;;;28.48;5.00;;;;;;;;;;5114062;28;20092;-77
2023/12/16 04:09:49;;;;;;;29.35;5.20;;;;;;;;;;5113599;28;20027;-75
2023/12/16 04:12:14;;;;;;;27.90;5.13;;;;;;;;;;5113373;28;20059;-75
2023/12/16 04:14:40;;;;;;;24.60;4.38;;;;;;;;;;5114082;28;20072;-74
2023/12/16 04:17:06;;;;;;;29.67;5.72;;;;;;;;;;5112913;28;20112;-76
2023/12/16 04:19:32;;;;;;;30.67;4.20;;;;;;;;;;5112958;28;20042;-75
2023/12/16 04:21:58;;;;;;;31.65;4.68;;;;;;;;;;5113296;28;20438;-75
2023/12/16 04:24:24;;;;;;;31.88;4.90;;;;;;;;;;5113189;28;20055;-76
2023/12/16 04:26:50;;;;;;;27.95;4.97;;;;;;;;;;5113969;28;20035;-76
2023/12/16 04:29:16;;;;;;;37.45;5.20;;;;;;;;;;5112339;28;20051;-75
2023/12/16 04:31:42;;;;;;;22.00;3.97;;;;;;;;;;5113135;28;20383;-75
2023/12/16 04:34:09;;;;;;;28.77;5.10;;;;;;;;;;5112853;28;20012;-75
2023/12/16 04:36:35;;;;;;;24.20;4.70;;;;;;;;;;5113925;28;20360;-74
2023/12/16 04:39:01;;;;;;;26.65;5.18;;;;;;;;;;5112909;28;20015;-74
2023/12/16 04:41:27;;;;;;;30.25;4.70;;;;;;;;;;5113067;28;20031;-75
2023/12/16 04:43:53;;;;;;;26.90;4.80;;;;;;;;;;5112768;28;20695;-75
2023/12/16 04:46:22;;;;;;;31.48;4.75;;;;;;;;;;5113558;28;20516;-76
2023/12/16 04:48:49;;;;;;;28.40;4.72;;;;;;;;;;5113496;28;20030;-77
2023/12/16 04:51:15;;;;;;;25.52;4.75;;;;;;;;;;5113068;28;20395;-75
2023/12/16 04:53:41;;;;;;;29.42;5.32;;;;;;;;;;5112720;28;20020;-75
2023/12/16 04:56:07;;;;;;;30.52;5.80;;;;;;;;;;5112254;28;20033;-75
2023/12/16 04:58:33;;;;;;;29.27;4.90;;;;;;;;;;5112561;28;20028;-74
2023/12/16 05:00:59;;;;;;;21.90;4.53;;;;;;;;;;5112500;28;20047;-75
2023/12/16 05:03:25;;;;;;;37.17;5.38;;;;;;;;;;5112983;28;20019;-75
2023/12/16 05:05:51;;;;;;;35.42;5.13;;;;;;;;;;5112779;28;20024;-74
2023/12/16 05:08:19;;;;;;;25.90;5.13;;;;;;;;;;5112203;28;20095;-75
2023/12/16 05:10:47;;;;;;;28.75;5.20;;;;;;;;;;5112289;28;20046;-76
2023/12/16 05:13:14;;;;;;;25.17;5.20;;;;;;;;;;5112836;28;20016;-76
2023/12/16 05:15:40;;;;;;;28.55;4.75;;;;;;;;;;5108335;28;20019;-77
2023/12/16 05:18:06;;;;;;;28.42;4.72;;;;;;;;;;5111445;28;20020;-76
2023/12/16 05:20:32;;;;;;;27.65;5.07;;;;;;;;;;5094001;28;20408;-76
2023/12/16 05:22:59;;;;;;;29.45;4.18;;;;;;;;;;5097883;28;20028;-76
2023/12/16 05:25:27;;;;;;;29.13;4.57;;;;;;;;;;5103581;28;20024;-76
2023/12/16 05:27:53;;;;;;;24.00;4.55;;;;;;;;;;5103191;28;20035;-76
2023/12/16 05:30:19;;;;;;;22.85;4.20;;;;;;;;;;5100210;28;20032;-76
2023/12/16 05:32:45;;;;;;;31.20;5.38;;;;;;;;;;5100910;28;20039;-75
2023/12/16 05:35:11;;;;;;;27.42;4.30;;;;;;;;;;5106905;28;20028;-75
2023/12/16 05:37:37;;;;;;;26.77;4.70;;;;;;;;;;5115959;28;20492;-75
2023/12/16 05:40:03;;;;;;;25.70;4.65;;;;;;;;;;5113508;28;20103;-75
2023/12/16 05:42:29;;;;;;;27.70;4.70;;;;;;;;;;5114352;28;20019;-75
2023/12/16 05:44:55;;;;;;;28.15;5.43;;;;;;;;;;5112756;28;20051;-75
2023/12/16 05:47:22;;;;;;;20.38;4.32;;;;;;;;;;5111184;28;20469;-76
2023/12/16 05:49:47;;;;;;;27.45;4.07;;;;;;;;;;5111337;28;20028;-76
2023/12/16 05:52:13;;;;;;;24.73;4.25;;;;;;;;;;5112801;28;20027;-76
2023/12/16 05:54:39;;;;;;;23.00;5.10;;;;;;;;;;5112475;28;20019;-75
2023/12/16 05:57:05;;;;;;;21.02;3.70;;;;;;;;;;5113147;28;20034;-76
2023/12/16 05:59:34;;;;;;;23.75;4.00;;;;;;;;;;5111608;28;20107;-75
2023/12/16 06:02:00;;;;;;;22.80;4.18;;;;;;;;;;5111716;28;20023;-76
2023/12/16 06:04:26;;;;;;;28.40;3.95;;;;;;;;;;5111535;28;20402;-75
2023/12/16 06:06:52;;;;;;;27.27;3.90;;;;;;;;;;5112111;28;20111;-74
2023/12/16 06:09:18;;;;;;;24.15;4.28;;;;;;;;;;5111638;28;20020;-77
2023/12/16 06:11:44;;;;;;;40.75;10.65;;;;;;;;;;5112703;28;20031;-75
2023/12/16 06:14:10;;;;;;;22.50;4.97;;;;;;;;;;5117510;28;20031;-76
2023/12/16 06:16:35;;;;;;;27.58;4.57;;;;;;;;;;5113739;28;20027;-73
2023/12/16 06:19:04;;;;;;;29.08;4.88;;;;;;;;;;5125949;28;20019;-76
2023/12/16 06:21:30;;;;;;;27.42;5.25;;;;;;;;;;5113572;28;20050;-75
2023/12/16 06:24:00;;;;;;;31.67;5.05;;;;;;;;;;5121178;28;20471;-75
2023/12/16 06:26:26;;;;;;;32.70;4.80;;;;;;;;;;5116637;28;20054;-76
2023/12/16 06:28:52;;;;;;;24.30;3.78;;;;;;;;;;5114198;28;20019;-76
2023/12/16 06:31:19;;;;;;;25.35;4.28;;;;;;;;;;5112639;28;20045;-76
2023/12/16 06:33:45;;;;;;;22.48;3.72;;;;;;;;;;5112977;28;20517;-75
2023/12/16 06:36:11;;;;;;;27.27;4.03;;;;;;;;;;5106943;28;20084;-76
2023/12/16 06:38:37;;;;;;;22.90;4.55;;;;;;;;;;5111687;28;20050;-76
2023/12/16 06:41:03;;;;;;;22.48;3.95;;;;;;;;;;5098037;28;20138;-75
2023/12/16 06:43:30;;;;;;;21.17;3.83;;;;;;;;;;5107069;28;20375;-75
2023/12/16 06:45:56;;;;;;;24.23;4.30;;;;;;;;;;5104702;28;20024;-76
2023/12/16 06:48:22;;;;;;;28.70;4.40;;;;;;;;;;5100274;28;20086;-74
2023/12/16 06:50:49;;;;;;;22.35;4.20;;;;;;;;;;5101151;28;20032;-74
2023/12/16 06:53:15;;;;;;;34.28;5.05;;;;;;;;;;5117675;28;20031;-75
2023/12/16 06:55:41;;;;;;;16.77;3.50;;;;;;;;;;5128664;28;20024;-74
2023/12/16 06:58:08;;;;;;;36.35;4.80;;;;;;;;;;5131193;28;20020;-75
2023/12/16 07:00:34;;;;;;;34.15;4.70;;;;;;;;;;5124188;28;20034;-75
2023/12/16 07:03:00;;;;;;;23.85;4.45;;;;;;;;;;5121904;28;20035;-73
2023/12/16 07:05:28;;;;;;;25.42;4.85;;;;;;;;;;5135543;28;20015;-75
2023/12/16 07:07:54;;;;;;;28.65;4.28;;;;;;;;;;5125724;28;20041;-74
2023/12/16 07:10:20;;;;;;;29.10;4.47;;;;;;;;;;5122752;28;20032;-75
2023/12/16 07:12:46;;;;;;;27.48;4.65;;;;;;;;;;5119762;28;20038;-75
2023/12/16 07:15:12;;;;;;;23.80;4.28;;;;;;;;;;5117843;28;20043;-75
2023/12/16 07:17:40;;;;;;;28.25;4.90;;;;;;;;;;5107695;28;20497;-75
2023/12/16 07:20:06;;;;;;;27.13;5.18;;;;;;;;;;5104359;28;20028;-74
2023/12/16 07:22:32;;;;;;;25.90;5.00;;;;;;;;;;5112650;28;20054;-75
2023/12/16 07:24:58;;;;;;;28.80;4.50;;;;;;;;;;5105305;28;20023;-74
2023/12/16 07:27:24;;;;;;;21.80;4.28;;;;;;;;;;5105414;28;20030;-75
2023/12/16 07:29:52;;;;;;;27.98;4.75;;;;;;;;;;5107420;28;20111;-75
2023/12/16 07:32:18;;;;;;;26.88;4.60;;;;;;;;;;5108461;28;20084;-75
2023/12/16 07:34:44;;;;;;;21.13;4.35;;;;;;;;;;5116033;28;20020;-76
2023/12/16 07:37:10;;;;;;;26.48;4.55;;;;;;;;;;5116607;28;20027;-75
2023/12/16 07:39:36;;;;;;;32.33;4.57;;;;;;;;;;5113930;28;20412;-75
2023/12/16 07:42:02;;;;;;;31.33;4.25;;;;;;;;;;5114576;27;20031;-74
2023/12/16 07:44:28;;;;;;;40.28;4.85;;;;;;;;;;5115174;28;20030;-74
2023/12/16 07:46:55;;;;;;;35.08;4.13;;;;;;;;;;5116981;27;20024;-75
2023/12/16 07:49:25;;;;;;;35.70;5.82;;;;;;;;;;5113720;28;20050;-73
2023/12/16 07:51:51;;;;;;;31.00;5.32;;;;;;;;;;5114114;28;20153;-74
2023/12/16 07:54:17;;;;;;;33.40;5.18;;;;;;;;;;5120589;28;20034;-73
2023/12/16 07:56:43;;;;;;;28.95;5.57;;;;;;;;;;5124447;28;20024;-76
2023/12/16 07:59:09;;;;;;;39.63;5.85;;;;;;;;;;5115654;28;20032;-76
2023/12/16 08:01:34;;;;;;;33.47;5.97;;;;;;;;;;5109359;28;20040;-73
2023/12/16 08:04:00;;;;;;;35.97;6.05;;;;;;;;;;5113707;28;20615;-75
2023/12/16 08:06:27;;;;;;;40.28;5.05;;;;;;;;;;5117160;28;20019;-73
2023/12/16 08:08:53;;;;;;;34.85;5.05;;;;;;;;;;5129018;28;20026;-73
2023/12/16 08:11:19;;;;;;;29.17;5.45;;;;;;;;;;5116938;28;20027;-75
2023/12/16 08:13:45;;;;;;;35.88;5.93;;;;;;;;;;5114114;28;20080;-76
2023/12/16 08:16:11;;;;;;;36.60;5.70;;;;;;;;;;5114105;28;20026;-74
2023/12/16 08:18:37;;;;;;;32.03;5.35;;;;;;;;;;5114024;28;20103;-74
2023/12/16 08:21:03;;;;;;;34.65;5.93;;;;;;;;;;5113550;28;20027;-74
2023/12/16 08:23:30;;;;;;;39.67;5.82;;;;;;;;;;5111430;28;20023;-75
2023/12/16 08:25:56;;;;;;;30.80;5.82;;;;;;;;;;5113321;28;20027;-74
2023/12/16 08:28:23;;;;;;;41.08;6.68;;;;;;;;;;5113197;28;20479;-74
2023/12/16 08:30:50;;;;;;;34.00;5.70;;;;;;;;;;5112653;28;20559;-75
2023/12/16 08:33:16;;;;;;;32.55;5.72;;;;;;;;;;5113142;28;20015;-73
2023/12/16 08:35:43;;;;;;;44.03;6.55;;;;;;;;;;5114399;28;20030;-74
2023/12/16 08:38:09;;;;;;;35.75;6.72;;;;;;;;;;5112869;28;20026;-75
2023/12/16 08:40:35;;;;;;;42.53;6.45;;;;;;;;;;5113038;28;20383;-74
2023/12/16 08:43:01;;;;;;;30.23;6.50;;;;;;;;;;5113344;28;20051;-75
2023/12/16 08:45:27;;;;;;;33.47;7.22;;;;;;;;;;5113594;28;20401;-75
2023/12/16 08:47:53;;;;;;;37.80;6.82;;;;;;;;;;5113254;28;20579;-75
2023/12/16 08:50:22;;;;;;;34.45;8.88;;;;;;;;;;5111369;28;20475;-73
2023/12/16 08:52:48;;;;;;;38.78;7.90;;;;;;;;;;5112626;28;20043;-74
2023/12/16 08:55:15;;;;;;;48.10;10.02;;;;;;;;;;5113358;28;20022;-75
2023/12/16 08:57:41;;;;;;;41.58;7.97;;;;;;;;;;5113432;28;20092;-74
2023/12/16 09:00:08;;;;;;;46.53;9.50;;;;;;;;;;5113051;28;20028;-74
2023/12/16 09:02:34;;;;;;;34.55;8.52;;;;;;;;;;5111855;28;20027;-75
2023/12/16 09:05:00;;;;;;;53.42;10.32;;;;;;;;;;5112839;28;20133;-76
2023/12/16 09:07:26;;;;;;;35.13;7.53;;;;;;;;;;5113998;28;20099;-74
2023/12/16 09:09:52;;;;;;;41.92;8.35;;;;;;;;;;5113809;28;20066;-74
2023/12/16 09:12:18;;;;;;;39.53;8.43;;;;;;;;;;5113356;28;20115;-76
2023/12/16 09:14:44;;;;;;;36.40;8.23;;;;;;;;;;5114416;28;20060;-76
2023/12/16 09:17:10;;;;;;;32.30;8.70;;;;;;;;;;5113768;28;20020;-75
2023/12/16 09:19:36;;;;;;;36.85;8.15;;;;;;;;;;5115237;28;20522;-75
2023/12/16 09:22:02;;;;;;;38.75;8.73;;;;;;;;;;5115634;28;20068;-76
2023/12/16 09:24:28;;;;;;;43.13;8.60;;;;;;;;;;5118156;28;20028;-76
2023/12/16 09:26:54;;;;;;;43.30;9.25;;;;;;;;;;5116007;28;20019;-75
2023/12/16 09:29:20;;;;;;;45.25;9.98;;;;;;;;;;5113455;28;20031;-75
2023/12/16 09:31:47;;;;;;;40.92;10.40;;;;;;;;;;5113601;28;20118;-76
2023/12/16 09:34:13;;;;;;;35.53;9.93;;;;;;;;;;5114158;28;20084;-74
2023/12/16 09:36:39;;;;;;;36.28;10.90;;;;;;;;;;5113606;28;20463;-75
2023/12/16 09:39:06;;;;;;;46.33;11.57;;;;;;;;;;5114390;28;20024;-76
2023/12/16 09:41:32;;;;;;;53.92;15.00;;;;;;;;;;5115839;28;20382;-75
2023/12/16 09:43:59;;;;;;;44.08;13.52;;;;;;;;;;5115953;28;20027;-74
2023/12/16 09:46:27;;;;;;;39.33;12.85;;;;;;;;;;5112596;28;20486;-74
2023/12/16 09:48:54;;;;;;;40.03;12.57;;;;;;;;;;5113927;28;20050;-73
2023/12/16 09:51:21;;;;;;;37.42;12.88;;;;;;;;;;5112935;28;20332;-75
2023/12/16 09:53:47;;;;;;;37.42;12.20;;;;;;;;;;5114171;28;20026;-75
2023/12/16 09:56:14;;;;;;;42.42;13.57;;;;;;;;;;5113726;28;20069;-75
2023/12/16 09:58:44;;;;;;;47.05;14.82;;;;;;;;;;5113623;28;20442;-75
2023/12/16 10:01:10;;;;;;;40.70;14.25;;;;;;;;;;5112340;28;20099;-74
2023/12/16 10:03:37;;;;;;;44.78;14.38;;;;;;;;;;5112413;28;20039;-74
2023/12/16 10:06:04;;;;;;;44.05;15.77;;;;;;;;;;5112539;28;20030;-74
2023/12/16 10:08:30;;;;;;;36.78;14.13;;;;;;;;;;5113388;28;20035;-76
2023/12/16 10:11:00;;;;;;;46.50;15.30;;;;;;;;;;5114561;28;20024;-75
2023/12/16 10:13:27;;;;;;;46.33;15.43;;;;;;;;;;5114300;28;20019;-74
2023/12/16 10:15:53;;;;;;;49.45;16.30;;;;;;;;;;5113628;28;20102;-74
2023/12/16 10:18:19;;;;;;;55.30;17.58;;;;;;;;;;5113669;28;20618;-74
2023/12/16 10:20:45;;;;;;;49.58;16.98;;;;;;;;;;5116221;28;20050;-76
2023/12/16 10:23:12;;;;;;;48.33;16.60;;;;;;;;;;5114071;28;20604;-75
2023/12/16 10:25:40;;;;;;;43.03;16.33;;;;;;;;;;5113350;28;20027;-74
2023/12/16 10:28:06;;;;;;;52.30;17.45;;;;;;;;;;5096208;28;20031;-75
2023/12/16 10:30:32;;;;;;;44.15;16.40;;;;;;;;;;5093970;28;20077;-75
2023/12/16 10:33:02;;;;;;;65.28;18.40;;;;;;;;;;5093284;28;20095;-76
2023/12/16 10:35:29;;;;;;;51.42;17.58;;;;;;;;;;5092917;28;20103;-76
2023/12/16 10:37:55;;;;;;;64.10;17.35;;;;;;;;;;5093644;28;20024;-80
2023/12/16 10:40:22;;;;;;;45.17;16.42;;;;;;;;;;5096178;28;20055;-78
2023/12/16 10:42:48;;;;;;;58.55;18.15;;;;;;;;;;5097122;28;20059;-77
2023/12/16 10:45:14;;;;;;;57.13;19.58;;;;;;;;;;5092415;28;20028;-74
2023/12/16 10:47:41;;;;;;;56.70;19.15;;;;;;;;;;5092083;28;20075;-75
2023/12/16 10:50:07;;;;;;;52.45;17.52;;;;;;;;;;5092272;28;20024;-76
2023/12/16 10:52:41;;;;;;;76.70;27.77;;;;;;;;;;5092735;28;20012;-76
2023/12/16 10:55:14;;;;;;;66.95;23.42;;;;;;;;;;5092583;28;20519;-76
2023/12/16 10:57:45;;;;;;;74.95;23.98;;;;;;;;;;5095247;28;20107;-75
2023/12/16 11:00:14;;;;;;;62.83;19.42;;;;;;;;;;5095781;28;20082;-75
2023/12/16 11:02:58;;;;;;;63.97;19.00;;;;;;;;;;5096187;28;20024;-76
2023/12/16 11:05:29;;;;;;;63.72;21.00;;;;;;;;;;5095869;28;20016;-76
2023/12/16 11:07:57;;;;;;;58.60;17.70;;;;;;;;;;5097278;28;20020;-77
2023/12/16 11:10:24;;;;;;;57.28;18.27;;;;;;;;;;5099362;28;20046;-77
2023/12/16 11:12:52;;;;;;;61.53;18.63;;;;;;;;;;5098075;28;20026;-75
2023/12/16 11:15:18;;;;;;;58.42;17.05;;;;;;;;;;5100698;28;20076;-77
2023/12/16 11:17:58;;;;;;;48.58;16.95;;;;;;;;;;5099557;28;20094;-79
2023/12/16 11:20:28;;;;;;;62.80;17.85;;;;;;;;;;5098827;28;20027;-77
2023/12/16 11:22:56;;;;;;;46.78;17.60;;;;;;;;;;5104409;28;20008;-76
2023/12/16 11:25:22;;;;;;;54.13;18.02;;;;;;;;;;5103489;28;20209;-75
2023/12/16 11:27:52;;;;;;;50.92;17.23;;;;;;;;;;5098729;28;20023;-76
2023/12/16 11:30:21;;;;;;;59.25;19.25;;;;;;;;;;5105270;28;20032;-78
2023/12/16 11:32:54;;;;;;;65.63;21.02;;;;;;;;;;5110119;28;20070;-77
2023/12/16 11:35:36;;;;;;;56.55;19.63;;;;;;;;;;5099834;28;20020;-77
2023/12/16 11:38:02;;;;;;;62.47;18.92;;;;;;;;;;5102457;28;20070;-78
2023/12/16 11:40:46;;;;;;;56.38;19.08;;;;;;;;;;5118605;28;20478;-76
2023/12/16 11:43:12;;;;;;;53.50;18.70;;;;;;;;;;5115448;28;20027;-77
2023/12/16 11:45:39;;;;;;;67.93;18.98;;;;;;;;;;5120016;28;20015;-76
2023/12/16 11:48:06;;;;;;;50.38;17.52;;;;;;;;;;5119358;28;20028;-77
2023/12/16 11:50:34;;;;;;;54.88;18.33;;;;;;;;;;5118946;28;20094;-76
2023/12/16 11:53:00;;;;;;;59.53;18.42;;;;;;;;;;5117288;28;20036;-77
2023/12/16 11:55:26;;;;;;;71.28;18.65;;;;;;;;;;5120575;28;20047;-77
2023/12/16 11:57:55;;;;;;;72.45;18.45;;;;;;;;;;5118919;28;20598;-77
2023/12/16 12:00:22;;;;;;;59.72;16.30;;;;;;;;;;5121113;28;20020;-76
2023/12/16 12:02:51;;;;;;;42.65;16.25;;;;;;;;;;5131760;28;19999;-77
2023/12/16 12:05:17;;;;;;;50.92;16.67;;;;;;;;;;5132783;28;20059;-76
2023/12/16 12:07:43;;;;;;;51.90;16.38;;;;;;;;;;5126627;28;20020;-74
2023/12/16 12:10:10;;;;;;;53.70;16.95;;;;;;;;;;5125260;28;20027;-75
2023/12/16 12:12:35;;;;;;;50.78;16.17;;;;;;;;;;5126599;28;20505;-76
2023/12/16 12:15:02;;;;;;;50.67;16.40;;;;;;;;;;5126743;28;20020;-75
2023/12/16 12:17:28;;;;;;;55.60;16.08;;;;;;;;;;5135756;28;20091;-76
2023/12/16 12:19:55;;;;;;;48.25;16.83;;;;;;;;;;5133843;28;20028;-78
2023/12/16 12:22:22;;;;;;;51.13;16.35;;;;;;;;;;5129047;28;20498;-76
2023/12/16 12:24:48;;;;;;;42.30;15.77;;;;;;;;;;5135540;28;20102;-76
2023/12/16 12:27:14;;;;;;;51.33;19.77;;;;;;;;;;5132256;28;20103;-76
2023/12/16 12:29:53;;;;;;;47.22;15.13;;;;;;;;;;5114478;28;20535;-76
2023/12/16 12:32:19;;;;;;;37.13;14.45;;;;;;;;;;5110934;28;20111;-75
2023/12/16 12:34:45;;;;;;;39.85;13.90;;;;;;;;;;5112627;28;20089;-76
2023/12/16 12:37:11;;;;;;;38.80;14.60;;;;;;;;;;5114339;28;20012;-76
2023/12/16 12:39:37;;;;;;;32.88;15.18;;;;;;;;;;5111372;28;20012;-77
2023/12/16 12:42:04;;;;;;;35.15;13.93;;;;;;;;;;5111130;28;20597;-76
2023/12/16 12:44:30;;;;;;;34.55;15.52;;;;;;;;;;5111272;28;20019;-76
2023/12/16 12:46:56;;;;;;;34.35;14.13;;;;;;;;;;5111476;28;20028;-76
2023/12/16 12:49:35;;;;;;;39.50;15.15;;;;;;;;;;5111067;28;20024;-76
2023/12/16 12:52:01;;;;;;;35.97;14.82;;;;;;;;;;5113399;28;20048;-76
2023/12/16 12:54:41;;;;;;;37.13;13.95;;;;;;;;;;5113722;28;20042;-77
2023/12/16 12:57:07;;;;;;;36.53;15.30;;;;;;;;;;5115756;28;20051;-75
2023/12/16 12:59:33;;;;;;;41.80;15.13;;;;;;;;;;5114830;28;20028;-77
2023/12/16 13:02:00;;;;;;;30.63;14.88;;;;;;;;;;5116711;28;20481;-77
2023/12/16 13:04:26;;;;;;;36.97;15.52;;;;;;;;;;5116193;28;20020;-76
2023/12/16 13:06:52;;;;;;;32.35;14.48;;;;;;;;;;5116302;28;20038;-75
2023/12/16 13:09:18;;;;;;;38.30;15.93;;;;;;;;;;5115974;28;20020;-77
2023/12/16 13:11:44;;;;;;;32.72;14.23;;;;;;;;;;5115287;28;20108;-76
2023/12/16 13:14:10;;;;;;;37.15;14.48;;;;;;;;;;5115079;28;20514;-76
2023/12/16 13:16:36;;;;;;;33.05;14.80;;;;;;;;;;5113431;28;20024;-76
2023/12/16 13:19:02;;;;;;;36.95;15.35;;;;;;;;;;5112923;28;20016;-77
2023/12/16 13:21:28;;;;;;;33.83;14.20;;;;;;;;;;5114277;28;20555;-75
2023/12/16 13:23:54;;;;;;;31.70;15.55;;;;;;;;;;5114154;28;20064;-75
2023/12/16 13:26:20;;;;;;;30.73;15.65;;;;;;;;;;5114532;28;20032;-76
2023/12/16 13:28:48;;;;;;;35.60;15.88;;;;;;;;;;5114932;28;20023;-75
2023/12/16 13:31:14;;;;;;;37.35;16.75;;;;;;;;;;5113445;28;20044;-78
2023/12/16 13:33:41;;;;;;;37.05;15.93;;;;;;;;;;5115067;28;20026;-75
2023/12/16 13:36:09;;;;;;;36.30;17.33;;;;;;;;;;5114481;28;20466;-76
2023/12/16 13:38:35;;;;;;;36.78;16.17;;;;;;;;;;5114246;28;20034;-80
2023/12/16 13:41:01;;;;;;;35.45;16.00;;;;;;;;;;5113012;28;20182;-76
2023/12/16 13:43:27;;;;;;;37.30;16.00;;;;;;;;;;5114847;28;20475;-77
2023/12/16 13:45:53;;;;;;;32.53;16.17;;;;;;;;;;5114336;28;20028;-77
2023/12/16 13:48:19;;;;;;;35.22;17.25;;;;;;;;;;5115145;28;20294;-77
2023/12/16 13:50:45;;;;;;;37.33;17.70;;;;;;;;;;5114368;28;20036;-75
2023/12/16 13:53:11;;;;;;;37.78;16.40;;;;;;;;;;5113000;28;20031;-75
2023/12/16 13:55:37;;;;;;;35.15;17.13;;;;;;;;;;5113361;28;20024;-75
2023/12/16 13:58:03;;;;;;;37.17;17.17;;;;;;;;;;5113267;28;20102;-77
2023/12/16 14:00:29;;;;;;;34.03;17.10;;;;;;;;;;5113633;28;20035;-75
2023/12/16 14:02:55;;;;;;;33.75;16.48;;;;;;;;;;5111875;28;20024;-75
2023/12/16 14:05:21;;;;;;;35.65;16.98;;;;;;;;;;5112681;28;20024;-75
2023/12/16 14:07:47;;;;;;;29.02;15.80;;;;;;;;;;5112816;28;20027;-76
2023/12/16 14:10:13;;;;;;;30.73;15.30;;;;;;;;;;5112684;28;20081;-77
2023/12/16 14:12:39;;;;;;;29.23;14.88;;;;;;;;;;5112407;28;20020;-77
2023/12/16 14:15:05;;;;;;;31.20;14.95;;;;;;;;;;5114209;28;20031;-79
2023/12/16 14:17:31;;;;;;;32.90;15.75;;;;;;;;;;5115494;28;20073;-78
2023/12/16 14:19:57;;;;;;;28.35;15.32;;;;;;;;;;5117193;28;20019;-77
2023/12/16 14:22:23;;;;;;;36.53;17.85;;;;;;;;;;5117558;28;20479;-78